Time;durP1;ratioP1;P1;durP2;ratioP2;P2;SDS_P1;SDS_P2;PMS_P1;PMS_P2;Temp;Humidity;BMP_temperature;BMP_pressure;BME280_temperature;BME280_humidity;BME280_pressure;Samples;Min_cycle;Max_cycle;Signal;HPM_P1;HPM_P2
2024/04/15 00:01:44;;;;;;;5.47;2.17;;;;;;;;;;5324149;26;20010;-84
2024/04/15 00:04:12;;;;;;;4.60;1.70;;;;;;;;;;5265173;26;20005;-82
2024/04/15 00:06:38;;;;;;;7.75;1.30;;;;;;;;;;5291634;26;20012;-83
2024/04/15 00:09:05;;;;;;;4.03;1.17;;;;;;;;;;5291026;26;20008;-83
2024/04/15 00:11:31;;;;;;;5.72;1.38;;;;;;;;;;5345948;26;20004;-82
2024/04/15 00:13:56;;;;;;;5.05;1.30;;;;;;;;;;5383775;26;20394;-82
2024/04/15 00:16:22;;;;;;;7.30;1.58;;;;;;;;;;5320101;26;19992;-85
2024/04/15 00:18:47;;;;;;;8.82;1.45;;;;;;;;;;5305299;26;19996;-82
2024/04/15 00:21:13;;;;;;;8.77;1.17;;;;;;;;;;5354614;26;20440;-82
2024/04/15 00:23:39;;;;;;;9.35;1.42;;;;;;;;;;5354879;26;19999;-85
2024/04/15 00:26:04;;;;;;;7.32;1.50;;;;;;;;;;5297080;26;20074;-83
2024/04/15 00:28:30;;;;;;;5.65;1.13;;;;;;;;;;5325486;26;19996;-84
2024/04/15 00:30:55;;;;;;;7.20;1.23;;;;;;;;;;5325817;26;20007;-85
2024/04/15 00:33:21;;;;;;;3.38;1.02;;;;;;;;;;5367144;21;20589;-80
2024/04/15 00:35:47;;;;;;;4.85;1.30;;;;;;;;;;5379005;26;20010;-82
2024/04/15 00:38:13;;;;;;;7.03;1.35;;;;;;;;;;5290027;27;20010;-80
2024/04/15 00:40:39;;;;;;;6.20;1.20;;;;;;;;;;5318488;26;20534;-81
2024/04/15 00:43:05;;;;;;;3.72;1.10;;;;;;;;;;5318876;26;20009;-81
2024/04/15 00:45:31;;;;;;;5.75;1.45;;;;;;;;;;5315880;26;20345;-82
2024/04/15 00:48:03;;;;;;;7.68;1.13;;;;;;;;;;5344512;26;20411;-79
2024/04/15 00:50:30;;;;;;;8.50;1.63;;;;;;;;;;5348607;26;20005;-81
2024/04/15 00:52:56;;;;;;;8.07;1.20;;;;;;;;;;5350031;26;20005;-80
2024/04/15 00:55:22;;;;;;;4.90;1.10;;;;;;;;;;5370762;26;20009;-81
2024/04/15 00:57:49;;;;;;;8.52;1.30;;;;;;;;;;5323700;26;20020;-78
2024/04/15 01:00:15;;;;;;;6.63;1.30;;;;;;;;;;5346746;26;20086;-79
2024/04/15 01:02:42;;;;;;;6.35;1.42;;;;;;;;;;5346923;26;20462;-80
2024/04/15 01:05:08;;;;;;;8.02;1.15;;;;;;;;;;5346849;26;20045;-81
2024/04/15 01:07:35;;;;;;;5.43;0.95;;;;;;;;;;5346185;26;20016;-80
2024/04/15 01:10:01;;;;;;;5.30;1.20;;;;;;;;;;5285362;26;20012;-80
2024/04/15 01:12:27;;;;;;;4.18;1.10;;;;;;;;;;5311967;26;20005;-80
2024/04/15 01:14:52;;;;;;;6.55;0.90;;;;;;;;;;5283240;27;20017;-80
2024/04/15 01:17:18;;;;;;;4.40;0.93;;;;;;;;;;5312769;26;20016;-80
2024/04/15 01:19:44;;;;;;;6.03;1.10;;;;;;;;;;5289268;26;20082;-80
2024/04/15 01:22:11;;;;;;;7.88;1.48;;;;;;;;;;5317453;26;20075;-79
2024/04/15 01:24:36;;;;;;;6.15;1.42;;;;;;;;;;5315831;26;20448;-79
2024/04/15 01:27:02;;;;;;;6.18;1.35;;;;;;;;;;5315915;26;20000;-79
2024/04/15 01:29:28;;;;;;;2.55;0.88;;;;;;;;;;5316496;26;20005;-79
2024/04/15 01:31:53;;;;;;;4.47;1.27;;;;;;;;;;5287900;26;20089;-78
2024/04/15 01:34:19;;;;;;;4.25;1.25;;;;;;;;;;5316455;26;20057;-80
2024/04/15 01:36:44;;;;;;;7.90;1.13;;;;;;;;;;5316527;26;20013;-79
2024/04/15 01:39:10;;;;;;;5.18;1.17;;;;;;;;;;5346005;26;20387;-81
2024/04/15 01:41:35;;;;;;;3.80;1.27;;;;;;;;;;5348420;26;20005;-78
2024/04/15 01:44:01;;;;;;;7.25;1.20;;;;;;;;;;5350243;26;20025;-81
2024/04/15 01:46:26;;;;;;;5.68;1.27;;;;;;;;;;5325141;26;20005;-80
2024/04/15 01:48:52;;;;;;;8.20;1.48;;;;;;;;;;5355259;26;20020;-79
2024/04/15 01:51:18;;;;;;;5.70;1.10;;;;;;;;;;5355352;26;20009;-79
2024/04/15 01:53:43;;;;;;;6.10;1.10;;;;;;;;;;5356053;26;20087;-80
2024/04/15 01:56:09;;;;;;;8.88;1.92;;;;;;;;;;5352828;26;20013;-79
2024/04/15 01:58:34;;;;;;;7.22;1.02;;;;;;;;;;5356118;26;20009;-79
2024/04/15 02:01:04;;;;;;;3.42;1.05;;;;;;;;;;5388045;26;20427;-79
2024/04/15 02:03:30;;;;;;;5.03;1.40;;;;;;;;;;5327529;26;20017;-79
2024/04/15 02:05:55;;;;;;;5.50;1.23;;;;;;;;;;5350790;26;20017;-78
2024/04/15 02:08:21;;;;;;;6.85;1.23;;;;;;;;;;5317029;26;20093;-80
2024/04/15 02:10:46;;;;;;;6.20;1.23;;;;;;;;;;5316609;26;20025;-78
2024/04/15 02:13:12;;;;;;;5.40;0.88;;;;;;;;;;5316443;26;20060;-79
2024/04/15 02:15:38;;;;;;;6.72;2.00;;;;;;;;;;5325215;26;20019;-80
2024/04/15 02:18:03;;;;;;;9.52;1.60;;;;;;;;;;5316930;26;20009;-78
2024/04/15 02:20:29;;;;;;;6.40;1.38;;;;;;;;;;5349123;26;20041;-80
2024/04/15 02:22:55;;;;;;;5.45;1.25;;;;;;;;;;5348852;26;20453;-80
2024/04/15 02:25:21;;;;;;;9.05;1.30;;;;;;;;;;5319351;26;20078;-80
2024/04/15 02:27:48;;;;;;;9.35;1.30;;;;;;;;;;5348413;26;20005;-80
2024/04/15 02:30:13;;;;;;;6.30;1.20;;;;;;;;;;5319871;26;20012;-80
2024/04/15 02:32:42;;;;;;;5.20;1.10;;;;;;;;;;5348253;26;20405;-80
2024/04/15 02:35:07;;;;;;;5.13;1.23;;;;;;;;;;5318910;26;20005;-78
2024/04/15 02:37:33;;;;;;;6.50;1.40;;;;;;;;;;5318785;26;20096;-81
2024/04/15 02:39:58;;;;;;;4.90;1.50;;;;;;;;;;5318925;26;20001;-80
2024/04/15 02:42:24;;;;;;;7.20;1.20;;;;;;;;;;5347956;26;20077;-79
2024/04/15 02:44:50;;;;;;;4.60;1.48;;;;;;;;;;5349573;26;20220;-78
2024/04/15 02:47:15;;;;;;;9.70;1.73;;;;;;;;;;5348366;26;20015;-81
2024/04/15 02:49:41;;;;;;;5.53;1.45;;;;;;;;;;5349791;26;20005;-80
2024/04/15 02:52:06;;;;;;;7.13;1.60;;;;;;;;;;5348800;26;20345;-80
2024/04/15 02:54:32;;;;;;;10.73;1.80;;;;;;;;;;5350773;26;20021;-79
2024/04/15 02:56:57;;;;;;;4.68;1.23;;;;;;;;;;5319102;26;20005;-78
2024/04/15 02:59:23;;;;;;;6.80;1.70;;;;;;;;;;5318010;26;20092;-78
2024/04/15 03:01:48;;;;;;;8.63;1.73;;;;;;;;;;5318485;26;20027;-80
2024/04/15 03:04:14;;;;;;;6.65;1.60;;;;;;;;;;5319468;26;20349;-79
2024/04/15 03:06:40;;;;;;;7.07;1.83;;;;;;;;;;5348366;26;20028;-81
2024/04/15 03:09:05;;;;;;;9.45;1.65;;;;;;;;;;5349650;26;20013;-78
2024/04/15 03:11:30;;;;;;;8.30;2.05;;;;;;;;;;5344286;26;20024;-81
2024/04/15 03:13:56;;;;;;;9.82;2.13;;;;;;;;;;5342308;26;20013;-78
2024/04/15 03:16:21;;;;;;;11.18;2.25;;;;;;;;;;5313416;27;20079;-80
2024/04/15 03:18:47;;;;;;;6.78;1.38;;;;;;;;;;5351898;26;20496;-79
2024/04/15 03:21:13;;;;;;;2.65;1.30;;;;;;;;;;5347546;26;20079;-80
2024/04/15 03:23:38;;;;;;;5.93;2.15;;;;;;;;;;5348448;26;20465;-80
2024/04/15 03:26:04;;;;;;;7.40;1.67;;;;;;;;;;5319606;26;20467;-80
2024/04/15 03:28:29;;;;;;;7.60;3.45;;;;;;;;;;5349907;26;20005;-79
2024/04/15 03:30:55;;;;;;;9.45;2.78;;;;;;;;;;5317748;26;20020;-80
2024/04/15 03:33:20;;;;;;;9.80;1.95;;;;;;;;;;5319134;26;20066;-78
2024/04/15 03:35:46;;;;;;;6.40;1.65;;;;;;;;;;5350338;26;20356;-81
2024/04/15 03:38:11;;;;;;;5.53;1.83;;;;;;;;;;5322700;26;20020;-80
2024/04/15 03:40:37;;;;;;;8.88;2.15;;;;;;;;;;5350280;26;20019;-78
2024/04/15 03:43:03;;;;;;;6.55;2.03;;;;;;;;;;5323454;26;20005;-81
2024/04/15 03:45:31;;;;;;;6.97;1.83;;;;;;;;;;5322881;26;20144;-80
2024/04/15 03:47:56;;;;;;;7.28;2.17;;;;;;;;;;5352790;26;20480;-81
2024/04/15 03:50:25;;;;;;;7.55;2.00;;;;;;;;;;5349634;26;20013;-80
2024/04/15 03:52:54;;;;;;;5.63;1.60;;;;;;;;;;5349704;26;20009;-81
2024/04/15 03:55:19;;;;;;;5.18;1.70;;;;;;;;;;5349747;26;20024;-80
2024/04/15 03:57:45;;;;;;;9.45;1.80;;;;;;;;;;5320941;26;20005;-80
2024/04/15 04:00:10;;;;;;;6.63;1.67;;;;;;;;;;5350399;26;20019;-79
2024/04/15 04:02:36;;;;;;;7.65;1.80;;;;;;;;;;5348927;26;20020;-80
2024/04/15 04:05:02;;;;;;;10.38;2.90;;;;;;;;;;5290757;26;20008;-79
2024/04/15 04:07:27;;;;;;;6.82;1.83;;;;;;;;;;5348114;26;20008;-79
2024/04/15 04:09:53;;;;;;;6.10;1.88;;;;;;;;;;5290985;26;20475;-81
2024/04/15 04:12:20;;;;;;;7.03;2.03;;;;;;;;;;5290731;26;20074;-80
2024/04/15 04:14:46;;;;;;;5.75;1.88;;;;;;;;;;5318573;26;20017;-80
2024/04/15 04:17:11;;;;;;;5.53;2.10;;;;;;;;;;5346685;26;20840;-80
2024/04/15 04:19:37;;;;;;;6.55;2.10;;;;;;;;;;5289648;26;20008;-80
2024/04/15 04:22:02;;;;;;;10.43;2.40;;;;;;;;;;5347297;26;20016;-80
2024/04/15 04:24:29;;;;;;;5.78;1.88;;;;;;;;;;5347362;26;20016;-80
2024/04/15 04:26:55;;;;;;;5.55;1.90;;;;;;;;;;5319542;26;20079;-79
2024/04/15 04:29:21;;;;;;;9.52;2.03;;;;;;;;;;5377294;26;20020;-80
2024/04/15 04:31:46;;;;;;;5.82;2.05;;;;;;;;;;5348528;26;20008;-80
2024/04/15 04:34:12;;;;;;;5.22;1.98;;;;;;;;;;5318945;26;20721;-79
2024/04/15 04:36:37;;;;;;;7.85;2.47;;;;;;;;;;5290324;26;20013;-79
2024/04/15 04:39:03;;;;;;;6.97;2.38;;;;;;;;;;5320219;26;20005;-81
2024/04/15 04:41:28;;;;;;;8.38;3.33;;;;;;;;;;5292694;26;20012;-80
2024/04/15 04:43:54;;;;;;;5.28;2.00;;;;;;;;;;5348356;26;20004;-81
2024/04/15 04:46:19;;;;;;;6.22;2.50;;;;;;;;;;5348274;26;20009;-79
2024/04/15 04:48:45;;;;;;;6.28;2.15;;;;;;;;;;5353248;26;20021;-79
2024/04/15 04:51:11;;;;;;;6.25;2.45;;;;;;;;;;5353616;26;20005;-81
2024/04/15 04:53:37;;;;;;;7.85;2.55;;;;;;;;;;5357943;26;20468;-79
2024/04/15 04:56:15;;;;;;;7.35;3.95;;;;;;;;;;5358913;26;20005;-80
2024/04/15 04:58:41;;;;;;;6.75;2.30;;;;;;;;;;5326138;26;20004;-80
2024/04/15 05:01:11;;;;;;;6.80;3.05;;;;;;;;;;5353933;26;20005;-81
2024/04/15 05:03:38;;;;;;;7.80;2.45;;;;;;;;;;5266930;27;20073;-79
2024/04/15 05:06:05;;;;;;;8.43;3.45;;;;;;;;;;5335256;26;20016;-81
2024/04/15 05:08:30;;;;;;;7.53;3.58;;;;;;;;;;5320708;26;20012;-81
2024/04/15 05:10:56;;;;;;;10.95;3.03;;;;;;;;;;5352907;26;20365;-80
2024/04/15 05:13:21;;;;;;;6.55;2.70;;;;;;;;;;5348225;26;20051;-80
2024/04/15 05:15:47;;;;;;;9.75;3.42;;;;;;;;;;5318244;26;20008;-80
2024/04/15 05:18:13;;;;;;;9.35;3.42;;;;;;;;;;5318536;26;20448;-80
2024/04/15 05:20:38;;;;;;;8.85;3.15;;;;;;;;;;5318618;26;20448;-80
2024/04/15 05:23:04;;;;;;;4.57;2.67;;;;;;;;;;5317919;26;20001;-80
2024/04/15 05:25:29;;;;;;;7.60;2.80;;;;;;;;;;5317971;26;20016;-81
2024/04/15 05:27:55;;;;;;;7.38;2.60;;;;;;;;;;5344925;26;20005;-81
2024/04/15 05:30:20;;;;;;;9.18;3.00;;;;;;;;;;5333634;26;20012;-78
2024/04/15 05:32:46;;;;;;;11.27;3.30;;;;;;;;;;5297875;26;20061;-80
2024/04/15 05:35:11;;;;;;;6.05;2.13;;;;;;;;;;5344452;26;20056;-80
2024/04/15 05:37:37;;;;;;;5.20;2.65;;;;;;;;;;5345863;26;20087;-80
2024/04/15 05:40:03;;;;;;;8.40;3.75;;;;;;;;;;5304866;26;20009;-81
2024/04/15 05:42:29;;;;;;;7.50;2.67;;;;;;;;;;5332320;26;20016;-81
2024/04/15 05:44:55;;;;;;;7.25;2.97;;;;;;;;;;5366927;26;20019;-80
2024/04/15 05:47:20;;;;;;;8.55;2.95;;;;;;;;;;5351789;26;20522;-80
2024/04/15 05:49:46;;;;;;;7.80;3.05;;;;;;;;;;5343295;26;20016;-79
2024/04/15 05:52:12;;;;;;;8.52;3.00;;;;;;;;;;5316505;26;20005;-82
2024/04/15 05:54:38;;;;;;;7.43;2.88;;;;;;;;;;5346254;26;20038;-79
2024/04/15 05:57:03;;;;;;;10.35;4.38;;;;;;;;;;5320252;26;20013;-80
2024/04/15 05:59:29;;;;;;;8.05;3.13;;;;;;;;;;5293256;26;20009;-79
2024/04/15 06:01:55;;;;;;;9.77;3.38;;;;;;;;;;5348867;26;20391;-80
2024/04/15 06:04:21;;;;;;;9.13;3.08;;;;;;;;;;5348697;26;20005;-79
2024/04/15 06:06:47;;;;;;;5.80;2.45;;;;;;;;;;5350625;26;20021;-82
2024/04/15 06:09:12;;;;;;;8.45;3.22;;;;;;;;;;5339469;26;20024;-80
2024/04/15 06:11:38;;;;;;;6.72;2.67;;;;;;;;;;5316108;26;20001;-81
2024/04/15 06:14:04;;;;;;;9.10;2.65;;;;;;;;;;5308309;26;20005;-79
2024/04/15 06:16:29;;;;;;;4.40;2.38;;;;;;;;;;5319219;26;20436;-81
2024/04/15 06:18:57;;;;;;;6.75;3.55;;;;;;;;;;5358089;26;20013;-80
2024/04/15 06:21:23;;;;;;;7.75;3.30;;;;;;;;;;5347502;26;20008;-79
2024/04/15 06:23:49;;;;;;;8.25;3.00;;;;;;;;;;5319655;26;20016;-80
2024/04/15 06:26:15;;;;;;;6.20;2.88;;;;;;;;;;5345367;26;20012;-79
2024/04/15 06:28:40;;;;;;;9.05;2.75;;;;;;;;;;5320820;26;20008;-79
2024/04/15 06:31:09;;;;;;;8.65;3.22;;;;;;;;;;5348552;26;20017;-78
2024/04/15 06:33:35;;;;;;;5.72;2.50;;;;;;;;;;5348296;26;20376;-79
2024/04/15 06:36:01;;;;;;;10.02;2.47;;;;;;;;;;5351783;26;20005;-78
2024/04/15 06:38:29;;;;;;;8.32;2.30;;;;;;;;;;5349769;26;20056;-77
2024/04/15 06:40:55;;;;;;;9.13;2.60;;;;;;;;;;5343304;26;20014;-79
2024/04/15 06:43:20;;;;;;;8.27;2.70;;;;;;;;;;5313693;27;20014;-78
2024/04/15 06:45:46;;;;;;;6.45;2.45;;;;;;;;;;5313993;26;20021;-79
2024/04/15 06:48:12;;;;;;;6.38;2.88;;;;;;;;;;5319014;26;20045;-80
2024/04/15 06:50:37;;;;;;;8.38;2.63;;;;;;;;;;5349498;26;20333;-78
2024/04/15 06:53:04;;;;;;;7.28;2.70;;;;;;;;;;5320249;26;20017;-80
2024/04/15 06:55:30;;;;;;;6.32;2.50;;;;;;;;;;5314951;26;20013;-80
2024/04/15 06:57:56;;;;;;;8.00;2.67;;;;;;;;;;5287602;27;20006;-79
2024/04/15 07:00:21;;;;;;;7.60;2.40;;;;;;;;;;5343878;26;20425;-78
2024/04/15 07:02:50;;;;;;;7.88;2.60;;;;;;;;;;5287037;27;20017;-79
2024/04/15 07:05:16;;;;;;;9.70;2.40;;;;;;;;;;5338059;26;20001;-78
2024/04/15 07:07:41;;;;;;;9.55;2.00;;;;;;;;;;5354741;26;20001;-79
2024/04/15 07:10:07;;;;;;;7.03;2.20;;;;;;;;;;5354370;26;20016;-79
2024/04/15 07:12:33;;;;;;;7.10;2.22;;;;;;;;;;5356932;26;20015;-78
2024/04/15 07:14:58;;;;;;;6.88;1.95;;;;;;;;;;5355653;26;20013;-79
2024/04/15 07:17:24;;;;;;;9.98;2.80;;;;;;;;;;5337440;26;20010;-80
2024/04/15 07:19:49;;;;;;;6.38;1.75;;;;;;;;;;5328843;26;20008;-79
2024/04/15 07:22:17;;;;;;;6.40;2.08;;;;;;;;;;5357232;26;20011;-80
2024/04/15 07:24:43;;;;;;;6.28;2.03;;;;;;;;;;5327718;26;20005;-79
2024/04/15 07:27:09;;;;;;;6.20;2.30;;;;;;;;;;5325851;26;20001;-79
2024/04/15 07:29:35;;;;;;;8.23;2.25;;;;;;;;;;5297461;26;20086;-78
2024/04/15 07:32:02;;;;;;;7.68;2.05;;;;;;;;;;5358423;26;20019;-78
2024/04/15 07:34:27;;;;;;;6.53;1.98;;;;;;;;;;5329687;26;20098;-80
2024/04/15 07:36:53;;;;;;;4.30;1.60;;;;;;;;;;5355859;26;20013;-79
2024/04/15 07:39:19;;;;;;;7.40;1.75;;;;;;;;;;5325218;26;20008;-79
2024/04/15 07:41:45;;;;;;;4.60;1.42;;;;;;;;;;5324166;26;20008;-79
2024/04/15 07:44:11;;;;;;;5.40;1.77;;;;;;;;;;5350505;26;20023;-77
2024/04/15 07:46:37;;;;;;;4.13;1.63;;;;;;;;;;5321525;26;20028;-80
2024/04/15 07:49:02;;;;;;;9.40;1.80;;;;;;;;;;5350339;26;20541;-79
2024/04/15 07:51:28;;;;;;;6.47;1.70;;;;;;;;;;5349088;26;20005;-79
2024/04/15 07:53:54;;;;;;;3.28;1.30;;;;;;;;;;5349943;26;20086;-80
2024/04/15 07:56:20;;;;;;;6.53;1.45;;;;;;;;;;5326889;26;20469;-80
2024/04/15 07:58:46;;;;;;;5.30;1.55;;;;;;;;;;5348700;26;20009;-78
2024/04/15 08:01:11;;;;;;;7.85;2.35;;;;;;;;;;5318353;26;20021;-79
2024/04/15 08:03:37;;;;;;;7.70;2.15;;;;;;;;;;5339050;26;20436;-80
2024/04/15 08:06:02;;;;;;;9.75;2.40;;;;;;;;;;5326720;26;20012;-80
2024/04/15 08:08:28;;;;;;;5.72;1.98;;;;;;;;;;5349011;26;20009;-80
2024/04/15 08:10:54;;;;;;;4.80;1.60;;;;;;;;;;5346805;26;20452;-81
2024/04/15 08:13:19;;;;;;;8.00;1.50;;;;;;;;;;5374704;26;20348;-78
2024/04/15 08:15:45;;;;;;;6.50;1.60;;;;;;;;;;5347989;26;20350;-81
2024/04/15 08:18:11;;;;;;;6.60;1.60;;;;;;;;;;5318634;26;20005;-79
2024/04/15 08:20:37;;;;;;;6.85;2.38;;;;;;;;;;5319905;26;20460;-79
2024/04/15 08:23:02;;;;;;;6.82;1.88;;;;;;;;;;5329083;26;20013;-81
2024/04/15 08:25:28;;;;;;;6.90;2.10;;;;;;;;;;5313224;27;20083;-79
2024/04/15 08:27:56;;;;;;;5.47;2.53;;;;;;;;;;5314061;26;20009;-80
2024/04/15 08:30:24;;;;;;;7.80;1.58;;;;;;;;;;5336803;26;20005;-80
2024/04/15 08:32:51;;;;;;;4.65;1.42;;;;;;;;;;5349273;26;20020;-79
2024/04/15 08:35:17;;;;;;;8.48;1.63;;;;;;;;;;5348931;26;20005;-79
2024/04/15 08:37:42;;;;;;;7.93;1.88;;;;;;;;;;5318329;26;20008;-77
2024/04/15 08:40:09;;;;;;;4.40;1.45;;;;;;;;;;5347538;26;20009;-77
2024/04/15 08:42:48;;;;;;;11.43;1.88;;;;;;;;;;5347488;26;20005;-80
2024/04/15 08:45:23;;;;;;;5.20;1.55;;;;;;;;;;5348448;26;20009;-78
2024/04/15 08:47:50;;;;;;;5.30;1.70;;;;;;;;;;5349290;26;20012;-80
2024/04/15 08:50:16;;;;;;;3.00;1.63;;;;;;;;;;5350622;26;20012;-79
2024/04/15 08:52:44;;;;;;;5.78;1.63;;;;;;;;;;5350617;26;20016;-77
2024/04/15 08:55:10;;;;;;;6.55;1.70;;;;;;;;;;5323729;26;20021;-79
2024/04/15 08:57:37;;;;;;;5.97;1.90;;;;;;;;;;5326245;26;20012;-79
2024/04/15 09:00:04;;;;;;;4.57;1.88;;;;;;;;;;5355718;26;20483;-79
2024/04/15 09:02:33;;;;;;;3.40;1.95;;;;;;;;;;5328737;26;20005;-80
2024/04/15 09:04:58;;;;;;;4.95;1.83;;;;;;;;;;5328298;26;20027;-78
2024/04/15 09:07:24;;;;;;;13.40;2.75;;;;;;;;;;5300235;26;20001;-80
2024/04/15 09:09:49;;;;;;;6.40;1.73;;;;;;;;;;5324058;26;20020;-79
2024/04/15 09:12:15;;;;;;;5.97;1.67;;;;;;;;;;5326459;26;20005;-80
2024/04/15 09:14:41;;;;;;;4.28;1.80;;;;;;;;;;5357648;26;20013;-80
2024/04/15 09:17:08;;;;;;;6.68;1.95;;;;;;;;;;5358776;26;20009;-79
2024/04/15 09:19:40;;;;;;;4.68;1.90;;;;;;;;;;5330503;26;20055;-80
2024/04/15 09:22:07;;;;;;;5.93;1.88;;;;;;;;;;5297931;26;20091;-80
2024/04/15 09:24:33;;;;;;;5.03;2.10;;;;;;;;;;5322595;26;20056;-79
2024/04/15 09:27:00;;;;;;;9.30;2.28;;;;;;;;;;5322189;26;20008;-80
2024/04/15 09:29:26;;;;;;;7.40;1.95;;;;;;;;;;5353869;26;20015;-79
2024/04/15 09:31:55;;;;;;;5.80;1.67;;;;;;;;;;5297546;26;20005;-79
2024/04/15 09:34:21;;;;;;;8.10;2.00;;;;;;;;;;5354150;26;20019;-79
2024/04/15 09:36:58;;;;;;;7.72;1.92;;;;;;;;;;5344999;26;20020;-80
2024/04/15 09:39:25;;;;;;;6.72;2.30;;;;;;;;;;5344785;26;20025;-80
2024/04/15 09:41:55;;;;;;;4.47;2.05;;;;;;;;;;5321440;26;20005;-79
2024/04/15 09:44:22;;;;;;;6.43;2.30;;;;;;;;;;5330522;26;20009;-81
2024/04/15 09:46:49;;;;;;;5.90;2.10;;;;;;;;;;5325755;26;20548;-81
2024/04/15 09:49:16;;;;;;;6.03;2.13;;;;;;;;;;5348062;26;20016;-78
2024/04/15 09:51:43;;;;;;;5.25;2.33;;;;;;;;;;5378915;26;20012;-81
2024/04/15 09:54:09;;;;;;;11.80;2.55;;;;;;;;;;5346765;26;20021;-80
2024/04/15 09:56:40;;;;;;;4.07;2.15;;;;;;;;;;5348221;26;20430;-79
2024/04/15 09:59:07;;;;;;;5.97;2.25;;;;;;;;;;5314349;27;20006;-80
2024/04/15 10:01:36;;;;;;;6.32;1.88;;;;;;;;;;5285774;27;20005;-81
2024/04/15 10:04:05;;;;;;;10.35;2.40;;;;;;;;;;5314032;27;20002;-79
2024/04/15 10:06:35;;;;;;;6.28;2.30;;;;;;;;;;5315418;27;20002;-79
2024/04/15 10:09:01;;;;;;;6.57;2.53;;;;;;;;;;5282524;27;20390;-80
2024/04/15 10:11:27;;;;;;;8.85;2.45;;;;;;;;;;5331673;26;20009;-80
2024/04/15 10:13:53;;;;;;;6.18;2.45;;;;;;;;;;5322218;26;20019;-80
2024/04/15 10:16:19;;;;;;;5.70;2.30;;;;;;;;;;5296249;26;20009;-81
2024/04/15 10:18:53;;;;;;;9.45;2.30;;;;;;;;;;5329300;26;20008;-79
2024/04/15 10:21:19;;;;;;;5.97;2.78;;;;;;;;;;5357333;26;20008;-78
2024/04/15 10:23:45;;;;;;;5.85;2.40;;;;;;;;;;5353433;26;20009;-82
2024/04/15 10:26:11;;;;;;;7.55;2.70;;;;;;;;;;5318790;26;20024;-81
2024/04/15 10:28:40;;;;;;;6.15;2.88;;;;;;;;;;5323332;26;20005;-81
2024/04/15 10:31:06;;;;;;;7.45;3.00;;;;;;;;;;5322214;26;20081;-80
2024/04/15 10:33:31;;;;;;;9.13;3.03;;;;;;;;;;5350099;26;20016;-80
2024/04/15 10:35:57;;;;;;;6.43;2.92;;;;;;;;;;5351521;26;20021;-80
2024/04/15 10:38:29;;;;;;;5.00;2.28;;;;;;;;;;5347732;26;20020;-80
2024/04/15 10:40:55;;;;;;;4.13;1.95;;;;;;;;;;5311489;26;20313;-80
2024/04/15 10:43:24;;;;;;;7.43;2.15;;;;;;;;;;5344604;26;20017;-80
2024/04/15 10:45:51;;;;;;;;;;;;;;;;;;5347030;26;20055;-79
2024/04/15 10:48:16;;;;;;;8.27;2.38;;;;;;;;;;5326395;26;19926;-80
2024/04/15 10:50:42;;;;;;;5.72;2.20;;;;;;;;;;5340639;26;20075;-78
2024/04/15 10:53:08;;;;;;;6.90;2.00;;;;;;;;;;5316965;26;20090;-79
2024/04/15 10:55:34;;;;;;;7.22;2.28;;;;;;;;;;5354234;26;20513;-77
2024/04/15 10:58:00;;;;;;;4.57;2.10;;;;;;;;;;5348964;26;20009;-80
2024/04/15 11:00:25;;;;;;;5.05;2.60;;;;;;;;;;5352696;26;20020;-81
2024/04/15 11:02:52;;;;;;;6.10;2.70;;;;;;;;;;5345067;26;20005;-80
2024/04/15 11:05:22;;;;;;;6.63;2.13;;;;;;;;;;5311681;26;20352;-79
2024/04/15 11:07:51;;;;;;;5.80;2.38;;;;;;;;;;5306943;26;20075;-80
2024/04/15 11:10:17;;;;;;;;;;;;;;;;;;5329429;26;20001;-81
2024/04/15 11:12:42;;;;;;;8.35;2.17;;;;;;;;;;5324431;26;19961;-80
2024/04/15 11:15:09;;;;;;;5.10;2.30;;;;;;;;;;5310861;26;20019;-81
2024/04/15 11:17:35;;;;;;;11.88;2.85;;;;;;;;;;5321196;26;20001;-79
2024/04/15 11:20:04;;;;;;;6.35;2.50;;;;;;;;;;5317608;26;20509;-81
2024/04/15 11:22:30;;;;;;;6.07;2.17;;;;;;;;;;5329683;26;20005;-78
2024/04/15 11:24:55;;;;;;;12.43;4.97;;;;;;;;;;5301269;26;20360;-80
2024/04/15 11:27:23;;;;;;;6.93;2.80;;;;;;;;;;5324160;26;20015;-80
2024/04/15 11:29:49;;;;;;;7.03;2.30;;;;;;;;;;5337839;26;20046;-80
2024/04/15 11:32:15;;;;;;;4.57;2.58;;;;;;;;;;5326632;26;20015;-80
2024/04/15 11:34:41;;;;;;;7.22;2.45;;;;;;;;;;5319218;26;20015;-80
2024/04/15 11:37:11;;;;;;;6.07;2.47;;;;;;;;;;5319448;26;20005;-80
2024/04/15 11:39:38;;;;;;;8.52;2.83;;;;;;;;;;5320546;26;20005;-80
2024/04/15 11:42:04;;;;;;;9.10;2.20;;;;;;;;;;5320535;26;20020;-79
2024/04/15 11:44:31;;;;;;;9.77;3.45;;;;;;;;;;5350245;26;20016;-81
2024/04/15 11:46:56;;;;;;;12.73;2.85;;;;;;;;;;5316307;26;20021;-81
2024/04/15 11:49:22;;;;;;;4.43;2.15;;;;;;;;;;5379919;26;20398;-80
2024/04/15 11:51:47;;;;;;;6.43;2.50;;;;;;;;;;5313356;26;20009;-78
2024/04/15 11:54:13;;;;;;;5.22;2.40;;;;;;;;;;5313922;26;20023;-79
2024/04/15 11:56:40;;;;;;;5.07;2.58;;;;;;;;;;5343877;26;20036;-80
2024/04/15 11:59:06;;;;;;;6.70;2.35;;;;;;;;;;5335441;26;20534;-79
2024/04/15 12:01:32;;;;;;;6.53;2.38;;;;;;;;;;5352559;26;20032;-79
2024/04/15 12:03:58;;;;;;;6.18;2.33;;;;;;;;;;5313655;26;20005;-79
2024/04/15 12:06:23;;;;;;;12.68;3.15;;;;;;;;;;5340716;26;20023;-77
2024/04/15 12:08:50;;;;;;;6.00;2.25;;;;;;;;;;5314948;26;20009;-79
2024/04/15 12:11:19;;;;;;;9.20;2.28;;;;;;;;;;5316868;26;20083;-79
2024/04/15 12:13:45;;;;;;;5.68;2.30;;;;;;;;;;5347603;26;20024;-78
2024/04/15 12:16:10;;;;;;;9.27;2.95;;;;;;;;;;5358200;26;20009;-79
2024/04/15 12:18:36;;;;;;;6.22;2.28;;;;;;;;;;5346530;26;20019;-79
2024/04/15 12:21:02;;;;;;;5.72;2.00;;;;;;;;;;5324382;26;20024;-79
2024/04/15 12:23:28;;;;;;;10.68;2.60;;;;;;;;;;5309278;26;20427;-80
2024/04/15 12:25:54;;;;;;;6.95;2.03;;;;;;;;;;5298320;26;20008;-79
2024/04/15 12:28:20;;;;;;;3.58;1.63;;;;;;;;;;5363476;26;20012;-80
2024/04/15 12:30:47;;;;;;;7.85;2.05;;;;;;;;;;5321000;26;20357;-78
2024/04/15 12:33:13;;;;;;;5.25;1.70;;;;;;;;;;5312359;26;20001;-80
2024/04/15 12:35:39;;;;;;;4.10;1.55;;;;;;;;;;5324170;26;20084;-80
2024/04/15 12:38:04;;;;;;;5.70;1.52;;;;;;;;;;5331190;26;20055;-79
2024/04/15 12:40:30;;;;;;;4.30;1.70;;;;;;;;;;5331035;26;20009;-80
2024/04/15 12:42:56;;;;;;;7.55;2.83;;;;;;;;;;5336279;26;20011;-79
2024/04/15 12:45:22;;;;;;;3.75;1.60;;;;;;;;;;5328502;26;20391;-80
2024/04/15 12:47:48;;;;;;;8.18;1.90;;;;;;;;;;5370044;26;20301;-79
2024/04/15 12:50:14;;;;;;;5.97;1.90;;;;;;;;;;5357011;26;20004;-80
2024/04/15 12:52:41;;;;;;;3.78;1.60;;;;;;;;;;5339624;26;20014;-80
2024/04/15 12:55:07;;;;;;;7.38;1.63;;;;;;;;;;5319906;26;20051;-81
2024/04/15 12:57:32;;;;;;;6.18;1.70;;;;;;;;;;5354354;26;20013;-81
2024/04/15 12:59:58;;;;;;;8.23;1.48;;;;;;;;;;5333455;26;20012;-81
2024/04/15 13:02:23;;;;;;;3.28;1.48;;;;;;;;;;5330094;26;20000;-80
2024/04/15 13:04:49;;;;;;;7.28;1.58;;;;;;;;;;5355079;26;20092;-81
2024/04/15 13:07:15;;;;;;;6.70;1.50;;;;;;;;;;5328055;26;20019;-79
2024/04/15 13:09:41;;;;;;;4.13;1.70;;;;;;;;;;5328835;26;20005;-80
2024/04/15 13:12:10;;;;;;;4.22;1.55;;;;;;;;;;5351631;26;20094;-79
2024/04/15 13:14:39;;;;;;;5.93;1.80;;;;;;;;;;5350206;26;20004;-80
2024/04/15 13:17:05;;;;;;;2.30;1.20;;;;;;;;;;5354462;26;20015;-79
2024/04/15 13:19:30;;;;;;;8.57;1.52;;;;;;;;;;5324642;26;20001;-80
2024/04/15 13:21:56;;;;;;;7.80;1.75;;;;;;;;;;5344038;26;20001;-79
2024/04/15 13:24:22;;;;;;;3.95;1.42;;;;;;;;;;5369732;26;20070;-78
2024/04/15 13:26:47;;;;;;;4.53;1.50;;;;;;;;;;5345005;26;20013;-80
2024/04/15 13:29:13;;;;;;;8.20;1.40;;;;;;;;;;5310338;26;20008;-79
2024/04/15 13:31:38;;;;;;;4.18;1.50;;;;;;;;;;5355938;26;20019;-80
2024/04/15 13:34:05;;;;;;;3.75;1.60;;;;;;;;;;5388197;26;20026;-80
2024/04/15 13:36:32;;;;;;;4.90;1.55;;;;;;;;;;5361372;26;20004;-80
2024/04/15 13:38:57;;;;;;;6.25;1.50;;;;;;;;;;5355852;26;20016;-80
2024/04/15 13:41:24;;;;;;;8.48;1.90;;;;;;;;;;5320925;27;20038;-78
2024/04/15 13:43:50;;;;;;;4.50;1.48;;;;;;;;;;5297661;27;20001;-80
2024/04/15 13:46:16;;;;;;;5.40;2.15;;;;;;;;;;5384377;26;20038;-78
2024/04/15 13:48:41;;;;;;;7.72;1.92;;;;;;;;;;5386919;26;20015;-78
2024/04/15 13:51:07;;;;;;;6.65;2.15;;;;;;;;;;5362826;26;20006;-79
2024/04/15 13:53:33;;;;;;;5.00;1.65;;;;;;;;;;5372154;26;20004;-78
2024/04/15 13:55:59;;;;;;;7.22;1.70;;;;;;;;;;5367567;26;20060;-79
2024/04/15 13:58:24;;;;;;;6.97;1.80;;;;;;;;;;5348905;26;20021;-78
2024/04/15 14:00:54;;;;;;;5.68;1.60;;;;;;;;;;5329063;26;20026;-80
2024/04/15 14:03:22;;;;;;;7.63;1.70;;;;;;;;;;5349718;26;20048;-81
2024/04/15 14:05:48;;;;;;;;;;;;;;;;;;5356104;26;20005;-79
2024/04/15 14:08:14;;;;;;;6.82;1.50;;;;;;;;;;5379310;26;19933;-79
2024/04/15 14:10:40;;;;;;;7.57;1.42;;;;;;;;;;5359174;26;20004;-78
2024/04/15 14:13:05;;;;;;;4.03;1.20;;;;;;;;;;5373713;26;20005;-77
2024/04/15 14:15:31;;;;;;;7.78;1.50;;;;;;;;;;5371976;26;20004;-78
2024/04/15 14:17:57;;;;;;;6.65;1.42;;;;;;;;;;5294362;26;20005;-78
2024/04/15 14:20:23;;;;;;;2.47;1.00;;;;;;;;;;5351291;26;20001;-80
2024/04/15 14:22:49;;;;;;;3.35;1.20;;;;;;;;;;5380389;26;20082;-80
2024/04/15 14:25:15;;;;;;;4.60;1.48;;;;;;;;;;5356725;26;20353;-78
2024/04/15 14:27:41;;;;;;;11.27;1.30;;;;;;;;;;5346999;26;20496;-79
2024/04/15 14:30:08;;;;;;;5.15;1.50;;;;;;;;;;5385338;26;20060;-79
2024/04/15 14:32:34;;;;;;;4.57;1.30;;;;;;;;;;5365566;26;20015;-79
2024/04/15 14:35:01;;;;;;;7.60;1.73;;;;;;;;;;5356773;26;20001;-80
2024/04/15 14:37:27;;;;;;;4.13;1.20;;;;;;;;;;5366020;26;20004;-80